Time;durP1;ratioP1;P1;durP2;ratioP2;P2;SDS_P1;SDS_P2;PMS_P1;PMS_P2;Temp;Humidity;BMP_temperature;BMP_pressure;BME280_temperature;BME280_humidity;BME280_pressure;Samples;Min_cycle;Max_cycle;Signal;HPM_P1;HPM_P2
2022/07/28 00:02:20;;;;;;;7.25;2.63;;;;;;;;;;5121563;27;20418;-82
2022/07/28 00:04:46;;;;;;;4.47;2.78;;;;;;;;;;5113343;27;20420;-82
2022/07/28 00:07:12;;;;;;;5.72;2.70;;;;;;;;;;5103609;28;20507;-81
2022/07/28 00:09:38;;;;;;;5.20;2.70;;;;;;;;;;5110328;28;20480;-81
2022/07/28 00:12:04;;;;;;;5.17;2.47;;;12.80;99.90;;;;;;5117627;27;20812;-81
2022/07/28 00:14:31;;;;;;;4.85;2.75;;;;;;;;;;5129514;28;20440;-81
2022/07/28 00:16:58;;;;;;;4.90;2.90;;;;;;;;;;5123293;27;20497;-81
2022/07/28 00:19:24;;;;;;;5.78;2.90;;;;;;;;;;5113475;27;20422;-81
2022/07/28 00:21:50;;;;;;;5.13;2.72;;;;;;;;;;5109222;28;20739;-81
2022/07/28 00:24:17;;;;;;;4.63;2.83;;;;;;;;;;5126705;28;20442;-81
2022/07/28 00:26:43;;;;;;;5.53;2.78;;;;;;;;;;5127160;27;20771;-81
2022/07/28 00:29:09;;;;;;;6.38;2.80;;;;;;;;;;5114569;28;20399;-81
2022/07/28 00:31:35;;;;;;;4.50;2.50;;;;;;;;;;5099623;28;20416;-81
2022/07/28 00:34:01;;;;;;;4.53;2.60;;;;;;;;;;5114826;27;21418;-81
2022/07/28 00:36:27;;;;;;;3.80;2.50;;;;;;;;;;5113445;28;20968;-81
2022/07/28 00:38:53;;;;;;;5.20;2.72;;;;;;;;;;5114199;27;20423;-81
2022/07/28 00:41:19;;;;;;;5.53;2.72;;;;;;;;;;5109759;27;20416;-81
2022/07/28 00:43:50;;;;;;;6.30;2.53;;;;;;;;;;5105148;27;20819;-81
2022/07/28 00:46:17;;;;;;;5.38;2.92;;;;;;;;;;5119488;27;20470;-81
2022/07/28 00:48:46;;;;;;;4.70;2.60;;;12.40;99.90;;;;;;5115825;27;20426;-81
2022/07/28 00:51:15;;;;;;;6.25;2.88;;;12.00;99.90;;;;;;5126910;27;20420;-81
2022/07/28 00:53:41;;;;;;;5.20;2.75;;;;;;;;;;5107718;27;20434;-81
2022/07/28 00:56:08;;;;;;;4.30;2.40;;;;;;;;;;5105103;27;20414;-81
2022/07/28 00:58:35;;;;;;;6.45;2.60;;;12.40;99.90;;;;;;5108237;27;20458;-81
2022/07/28 01:01:01;;;;;;;4.38;2.53;;;;;;;;;;5113262;28;20415;-81
2022/07/28 01:03:28;;;;;;;4.35;2.40;;;;;;;;;;5128003;27;20418;-82
2022/07/28 01:06:01;;;;;;;5.07;2.80;;;;;;;;;;5115876;27;20505;-82
2022/07/28 01:08:33;;;;;;;4.93;2.60;;;;;;;;;;5112909;27;20427;-78
2022/07/28 01:11:10;;;;;;;4.97;2.63;;;12.70;99.90;;;;;;5127333;27;20967;-80
2022/07/28 01:13:49;;;;;;;4.20;2.78;;;;;;;;;;5120176;27;20424;-80
2022/07/28 01:16:15;;;;;;;5.00;2.80;;;;;;;;;;5127913;27;20931;-79
2022/07/28 01:18:45;;;;;;;4.22;2.53;;;12.30;99.90;;;;;;5119107;27;20418;-80
2022/07/28 01:21:13;;;;;;;3.92;2.50;;;;;;;;;;5131669;27;20568;-80
2022/07/28 01:23:50;;;;;;;5.82;2.70;;;;;;;;;;5127053;27;20410;-80
2022/07/28 01:26:19;;;;;;;3.90;2.20;;;;;;;;;;5102247;27;20487;-80
2022/07/28 01:29:04;;;;;;;4.82;2.33;;;;;;;;;;5135376;27;20450;-80
2022/07/28 01:31:33;;;;;;;3.83;2.38;;;;;;;;;;5130989;27;20415;-80
2022/07/28 01:34:05;;;;;;;5.32;2.40;;;;;;;;;;5114977;27;20730;-80
2022/07/28 01:36:33;;;;;;;5.05;2.60;;;;;;;;;;5113379;27;20422;-80
2022/07/28 01:38:59;;;;;;;5.20;2.35;;;;;;;;;;5133138;27;20474;-80
2022/07/28 01:41:29;;;;;;;3.83;2.20;;;12.20;99.90;;;;;;5115387;27;20451;-80
2022/07/28 01:44:01;;;;;;;4.40;2.25;;;;;;;;;;5123066;27;20412;-80
2022/07/28 01:46:27;;;;;;;4.65;2.33;;;12.20;99.90;;;;;;5125797;27;20425;-79
2022/07/28 01:48:54;;;;;;;5.47;2.85;;;;;;;;;;5094252;28;20423;-80
2022/07/28 01:51:21;;;;;;;3.47;2.47;;;;;;;;;;5095561;28;20415;-80
2022/07/28 01:53:50;;;;;;;3.95;2.55;;;12.00;99.90;;;;;;5100767;27;20422;-80
2022/07/28 01:56:18;;;;;;;5.47;2.80;;;12.10;99.90;;;;;;5131304;27;20491;-80
2022/07/28 01:58:44;;;;;;;5.70;3.00;;;;;;;;;;5094010;28;20481;-80
2022/07/28 02:01:13;;;;;;;4.00;2.85;;;11.90;99.90;;;;;;5134014;27;20767;-80
2022/07/28 02:03:41;;;;;;;3.95;2.90;;;;;;;;;;5130566;27;20402;-80
2022/07/28 02:06:07;;;;;;;5.90;2.90;;;;;;;;;;5129830;27;20414;-80
2022/07/28 02:08:34;;;;;;;4.90;3.00;;;;;;;;;;5096556;27;20416;-80
2022/07/28 02:13:47;;;;;;;4.35;3.03;;;;;;;;;;5131892;27;20415;-80
2022/07/28 02:16:16;;;;;;;5.20;3.30;;;11.80;99.90;;;;;;5131031;27;20954;-79
2022/07/28 02:18:43;;;;;;;6.95;2.97;;;;;;;;;;5119486;27;20419;-80
2022/07/28 02:21:10;;;;;;;5.28;3.20;;;11.80;99.90;;;;;;5137876;27;20412;-79
2022/07/28 02:23:37;;;;;;;6.25;3.10;;;;;;;;;;5145402;27;20412;-80
2022/07/28 02:26:05;;;;;;;5.07;3.00;;;;;;;;;;5116099;27;20422;-80
2022/07/28 02:28:31;;;;;;;5.70;3.00;;;;;;;;;;5105084;27;20432;-80
2022/07/28 02:30:59;;;;;;;4.88;2.97;;;;;;;;;;5112334;27;20544;-80
2022/07/28 02:33:27;;;;;;;5.53;3.22;;;11.30;99.90;;;;;;5134392;27;20470;-80
2022/07/28 02:35:54;;;;;;;5.30;3.17;;;;;;;;;;5114890;27;20883;-81
2022/07/28 02:38:22;;;;;;;5.15;2.92;;;;;;;;;;5128614;27;20415;-80
2022/07/28 02:40:50;;;;;;;5.43;3.22;;;11.30;99.90;;;;;;5111264;27;20974;-80
2022/07/28 02:43:20;;;;;;;6.93;3.55;;;;;;;;;;5117818;27;20539;-80
2022/07/28 02:45:51;;;;;;;4.50;3.13;;;;;;;;;;5119970;27;20749;-80
2022/07/28 02:48:18;;;;;;;5.13;3.10;;;;;;;;;;5111114;28;20793;-80
2022/07/28 02:50:45;;;;;;;4.90;3.50;;;;;;;;;;5127062;27;20440;-81
2022/07/28 02:53:13;;;;;;;5.13;3.10;;;;;;;;;;5111274;28;20400;-80
2022/07/28 02:55:39;;;;;;;4.63;2.97;;;;;;;;;;5099919;27;20985;-80
2022/07/28 02:58:07;;;;;;;8.23;3.22;;;;;;;;;;5111620;27;20481;-80
2022/07/28 03:00:34;;;;;;;3.88;2.83;;;10.90;99.90;;;;;;5112618;27;20427;-80
2022/07/28 03:03:01;;;;;;;4.82;2.72;;;;;;;;;;5110936;27;20503;-80
2022/07/28 03:05:27;;;;;;;4.38;3.28;;;;;;;;;;5112053;27;20529;-80
2022/07/28 03:07:54;;;;;;;6.22;2.95;;;;;;;;;;5096719;28;20407;-80
2022/07/28 03:10:25;;;;;;;5.70;2.88;;;11.10;99.90;;;;;;5123930;27;20419;-80
2022/07/28 03:12:52;;;;;;;4.65;2.90;;;;;;;;;;5110710;27;20434;-79
2022/07/28 03:15:18;;;;;;;4.60;2.80;;;;;;;;;;5111799;27;20528;-79
2022/07/28 03:17:44;;;;;;;4.63;2.70;;;;;;;;;;5111201;28;20424;-79
2022/07/28 03:20:11;;;;;;;4.60;2.92;;;;;;;;;;5110310;27;20420;-80
2022/07/28 03:22:37;;;;;;;6.13;3.20;;;11.00;99.90;;;;;;5126099;27;20448;-80
2022/07/28 03:25:06;;;;;;;5.13;3.10;;;;;;;;;;5093933;28;20577;-80
2022/07/28 03:27:34;;;;;;;6.45;3.72;;;;;;;;;;5114209;27;20414;-80
2022/07/28 03:30:04;;;;;;;5.45;2.97;;;;;;;;;;5112298;27;20418;-80
2022/07/28 03:32:33;;;;;;;4.25;2.90;;;10.90;99.90;;;;;;5128690;27;20750;-80
2022/07/28 03:34:59;;;;;;;5.63;2.90;;;;;;;;;;5123289;27;20793;-80
2022/07/28 03:37:30;;;;;;;4.80;3.15;;;10.90;99.90;;;;;;5130457;27;20848;-79
2022/07/28 03:39:57;;;;;;;5.23;2.90;;;;;;;;;;5116698;28;20915;-79
2022/07/28 03:42:23;;;;;;;6.05;2.72;;;;;;;;;;5108052;28;20523;-79
2022/07/28 03:44:50;;;;;;;5.43;2.80;;;;;;;;;;5119309;27;20406;-80
2022/07/28 03:47:20;;;;;;;6.07;3.30;;;11.40;99.90;;;;;;5131129;28;20399;-81
2022/07/28 03:49:46;;;;;;;4.60;2.85;;;;;;;;;;5096866;28;20413;-80
2022/07/28 03:52:13;;;;;;;4.60;2.88;;;;;;;;;;5113982;27;20460;-80
2022/07/28 03:54:39;;;;;;;4.68;2.95;;;;;;;;;;5110063;28;20913;-80
2022/07/28 03:57:05;;;;;;;4.82;3.00;;;;;;;;;;5103807;28;20479;-80
2022/07/28 03:59:31;;;;;;;4.18;2.90;;;;;;;;;;5110947;27;20424;-80
2022/07/28 04:01:57;;;;;;;7.00;3.15;;;;;;;;;;5123799;27;20442;-80
2022/07/28 04:04:23;;;;;;;5.82;3.40;;;;;;;;;;5125880;27;20416;-80
2022/07/28 04:06:49;;;;;;;5.53;3.47;;;;;;;;;;5125607;28;20857;-80
2022/07/28 04:09:15;;;;;;;7.30;4.05;;;;;;;;;;5127913;27;21115;-80
2022/07/28 04:11:42;;;;;;;6.07;3.50;;;;;;;;;;5117514;27;20422;-80
2022/07/28 04:14:08;;;;;;;6.00;3.40;;;;;;;;;;5116110;28;20474;-80
2022/07/28 04:16:34;;;;;;;7.32;3.65;;;;;;;;;;5096530;28;20416;-80
2022/07/28 04:19:00;;;;;;;5.97;3.72;;;;;;;;;;5111166;27;20912;-80
2022/07/28 04:21:26;;;;;;;6.00;3.60;;;;;;;;;;5113939;27;20899;-80
2022/07/28 04:23:53;;;;;;;6.07;3.58;;;;;;;;;;5115441;27;20415;-80
2022/07/28 04:26:19;;;;;;;5.10;3.40;;;;;;;;;;5130736;27;20918;-80
2022/07/28 04:28:45;;;;;;;6.40;3.50;;;;;;;;;;5108958;27;20423;-80
2022/07/28 04:31:11;;;;;;;5.63;3.63;;;;;;;;;;5096910;28;20410;-80
2022/07/28 04:33:38;;;;;;;5.35;3.70;;;;;;;;;;5113903;27;20420;-79
2022/07/28 04:36:04;;;;;;;6.35;3.63;;;;;;;;;;5134638;27;20482;-80
2022/07/28 04:38:30;;;;;;;5.87;3.90;;;;;;;;;;5130299;27;20422;-79
2022/07/28 04:40:56;;;;;;;8.05;4.28;;;;;;;;;;5134327;27;20738;-80
2022/07/28 04:43:22;;;;;;;7.82;4.28;;;;;;;;;;5111791;27;20758;-79
2022/07/28 04:45:50;;;;;;;6.90;3.92;;;;;;;;;;5121262;27;20625;-79
2022/07/28 04:48:16;;;;;;;8.32;4.25;;;;;;;;;;5114312;27;20414;-80
2022/07/28 04:50:44;;;;;;;6.38;4.10;;;;;;;;;;5119123;27;20427;-80
2022/07/28 04:53:10;;;;;;;7.78;4.60;;;;;;;;;;5116152;27;20423;-80
2022/07/28 04:55:38;;;;;;;7.05;4.80;;;;;;;;;;5114982;27;20484;-80
2022/07/28 04:58:05;;;;;;;9.15;5.38;;;;;;;;;;5112987;28;21253;-80
2022/07/28 05:00:32;;;;;;;8.55;5.30;;;;;;;;;;5123839;27;20452;-81
2022/07/28 05:02:58;;;;;;;7.90;4.80;;;;;;;;;;5109209;27;20496;-79
2022/07/28 05:05:24;;;;;;;9.20;5.13;;;;;;;;;;5123000;27;21008;-79
2022/07/28 05:07:51;;;;;;;8.95;4.88;;;;;;;;;;5114720;27;20420;-80
2022/07/28 05:10:17;;;;;;;6.70;4.40;;;;;;;;;;5124001;27;20418;-80
2022/07/28 05:12:44;;;;;;;7.65;4.78;;;;;;;;;;5135440;27;20414;-78
2022/07/28 05:15:10;;;;;;;8.73;5.20;;;;;;;;;;5128248;27;20419;-79
2022/07/28 05:17:36;;;;;;;7.80;4.97;;;;;;;;;;5112579;27;20412;-78
2022/07/28 05:20:03;;;;;;;10.20;5.45;;;12.50;99.90;;;;;;5133373;27;20451;-78
2022/07/28 05:22:40;;;;;;;10.18;5.68;;;;;;;;;;5113197;28;20743;-78
2022/07/28 05:25:12;;;;;;;10.68;5.55;;;;;;;;;;5126388;27;20414;-77
2022/07/28 05:27:38;;;;;;;10.10;5.70;;;;;;;;;;5111744;27;20426;-78
2022/07/28 05:30:04;;;;;;;8.20;5.75;;;;;;;;;;5115004;27;20491;-77
2022/07/28 05:32:30;;;;;;;7.03;4.57;;;;;;;;;;5130165;27;20497;-78
2022/07/28 05:34:58;;;;;;;7.88;4.60;;;;;;;;;;5123078;27;20834;-77
2022/07/28 05:37:24;;;;;;;8.52;4.60;;;;;;;;;;5112713;27;20507;-78
2022/07/28 05:39:50;;;;;;;8.35;5.03;;;;;;;;;;5112221;27;20922;-78
2022/07/28 05:42:16;;;;;;;5.93;4.10;;;;;;;;;;5112857;27;20780;-75
2022/07/28 05:44:42;;;;;;;9.90;3.85;;;;;;;;;;5134265;27;20411;-75
2022/07/28 05:47:08;;;;;;;7.60;3.30;;;;;;;;;;5131736;27;20415;-76
2022/07/28 05:49:34;;;;;;;7.78;3.15;;;;;;;;;;5130288;27;20429;-75
2022/07/28 05:52:00;;;;;;;7.13;3.05;;;;;;;;;;5133107;27;20742;-76
2022/07/28 05:54:26;;;;;;;6.03;2.67;;;14.10;99.90;;;;;;5096701;27;20420;-75
2022/07/28 05:56:53;;;;;;;5.18;2.50;;;;;;;;;;5114643;27;20434;-75
2022/07/28 05:59:19;;;;;;;7.38;2.72;;;;;;;;;;5124875;27;20418;-75
2022/07/28 06:01:45;;;;;;;5.93;2.22;;;;;;;;;;5115471;27;20415;-75
2022/07/28 06:04:11;;;;;;;8.27;2.40;;;;;;;;;;5121313;27;20419;-75
2022/07/28 06:06:37;;;;;;;5.55;2.20;;;;;;;;;;5126033;27;20422;-75
2022/07/28 06:09:03;;;;;;;4.83;1.73;;;;;;;;;;5130329;27;20450;-74
2022/07/28 06:11:29;;;;;;;8.10;2.15;;;;;;;;;;5121841;27;20408;-74
2022/07/28 06:13:55;;;;;;;7.60;2.30;;;;;;;;;;5114683;27;20431;-75
2022/07/28 06:16:21;;;;;;;7.63;2.17;;;;;;;;;;5123600;27;20448;-75
2022/07/28 06:18:48;;;;;;;9.63;2.33;;;;;;;;;;5116062;27;20927;-75
2022/07/28 06:21:14;;;;;;;7.50;2.30;;;;;;;;;;5121240;27;20463;-75
2022/07/28 06:23:40;;;;;;;3.72;1.70;;;;;;;;;;5108875;28;20491;-75
2022/07/28 06:26:06;;;;;;;5.82;1.90;;;;;;;;;;5117421;27;20407;-75
2022/07/28 06:28:32;;;;;;;8.33;2.07;;;;;;;;;;5129121;27;20504;-75
2022/07/28 06:30:58;;;;;;;6.20;1.92;;;;;;;;;;5132323;27;20758;-76
2022/07/28 06:33:24;;;;;;;5.22;2.00;;;;;;;;;;5113991;27;20763;-75
2022/07/28 06:35:50;;;;;;;8.38;2.17;;;;;;;;;;5113634;27;20410;-76
2022/07/28 06:38:16;;;;;;;7.68;2.40;;;;;;;;;;5113769;27;20781;-75
2022/07/28 06:40:43;;;;;;;10.80;2.75;;;;;;;;;;5127264;27;20410;-75
2022/07/28 06:43:09;;;;;;;11.43;2.58;;;;;;;;;;5128232;27;20417;-75
2022/07/28 06:45:35;;;;;;;18.27;3.58;;;;;;;;;;5132967;27;20411;-75
2022/07/28 06:48:01;;;;;;;9.70;2.75;;;;;;;;;;5131696;27;20416;-78
2022/07/28 06:50:27;;;;;;;11.10;2.60;;;;;;;;;;5116062;27;20466;-77
2022/07/28 06:52:57;;;;;;;14.38;3.15;;;15.50;99.90;;;;;;5129669;27;20434;-76
2022/07/28 06:55:23;;;;;;;13.80;2.53;;;;;;;;;;5122526;27;20912;-76
2022/07/28 06:57:49;;;;;;;14.85;2.72;;;;;;;;;;5122117;27;20422;-77
2022/07/28 07:00:15;;;;;;;14.88;2.90;;;;;;;;;;5123324;27;20413;-77
2022/07/28 07:02:41;;;;;;;9.80;2.63;;;15.80;99.90;;;;;;5124416;27;20498;-77
2022/07/28 07:05:08;;;;;;;9.00;2.22;;;15.90;99.90;;;;;;5122813;27;20421;-78
2022/07/28 07:07:35;;;;;;;7.53;2.05;;;;;;;;;;5131571;27;20928;-77
2022/07/28 07:10:03;;;;;;;6.90;2.30;;;;;;;;;;5121955;27;20412;-78
2022/07/28 07:12:29;;;;;;;8.98;2.50;;;;;;;;;;5122833;27;20450;-76
2022/07/28 07:14:55;;;;;;;9.20;2.15;;;;;;;;;;5126261;27;20468;-77
2022/07/28 07:17:21;;;;;;;7.25;2.17;;;;;;;;;;5123063;27;20612;-78
2022/07/28 07:19:47;;;;;;;6.43;1.95;;;;;;;;;;5104436;28;20412;-77
2022/07/28 07:22:14;;;;;;;7.57;2.25;;;;;;;;;;5113676;27;20471;-76
2022/07/28 07:24:40;;;;;;;7.10;2.45;;;;;;;;;;5096744;27;20933;-76
2022/07/28 07:27:06;;;;;;;8.68;2.60;;;;;;;;;;5122957;27;20432;-77
2022/07/28 07:29:31;;;;;;;8.90;2.28;;;16.50;99.90;;;;;;5110368;27;20431;-76
2022/07/28 07:31:57;;;;;;;6.63;2.10;;;;;;;;;;5120660;27;20414;-76
2022/07/28 07:34:24;;;;;;;7.18;1.80;;;;;;;;;;5125837;27;20418;-76
2022/07/28 07:36:50;;;;;;;5.85;2.08;;;;;;;;;;5114051;27;20839;-76
2022/07/28 07:39:16;;;;;;;5.47;1.98;;;;;;;;;;5133942;27;20398;-76
2022/07/28 07:41:42;;;;;;;6.78;2.10;;;;;;;;;;5135142;27;20442;-76
2022/07/28 07:44:09;;;;;;;7.22;2.22;;;;;;;;;;5118560;27;20425;-74
2022/07/28 07:46:38;;;;;;;8.37;2.43;;;;;;;;;;5120007;27;20418;-75
2022/07/28 07:49:04;;;;;;;7.10;2.17;;;;;;;;;;5116441;27;20427;-76
2022/07/28 07:51:30;;;;;;;4.63;2.10;;;;;;;;;;5103771;27;20430;-76
2022/07/28 07:53:57;;;;;;;5.00;2.10;;;;;;;;;;5106790;28;20480;-77
2022/07/28 07:56:23;;;;;;;7.75;2.40;;;;;;;;;;5133887;27;20473;-77
2022/07/28 07:58:50;;;;;;;4.88;1.40;;;17.10;99.90;;;;;;5137237;27;20411;-76
2022/07/28 08:01:16;;;;;;;5.85;1.50;;;;;;;;;;5122802;27;20431;-78
2022/07/28 08:03:43;;;;;;;4.70;1.70;;;;;;;;;;5124583;27;20416;-78
2022/07/28 08:06:09;;;;;;;5.90;1.65;;;;;;;;;;5115072;27;20425;-77
2022/07/28 08:08:35;;;;;;;3.20;1.60;;;;;;;;;;5127953;27;20565;-78
2022/07/28 08:11:01;;;;;;;3.40;1.40;;;16.90;99.90;;;;;;5120848;27;20925;-78
2022/07/28 08:13:27;;;;;;;6.43;1.63;;;;;;;;;;5111884;27;20413;-78
2022/07/28 08:15:53;;;;;;;4.60;1.60;;;;;;;;;;5114479;27;20411;-78
2022/07/28 08:18:20;;;;;;;4.85;1.40;;;;;;;;;;5123721;27;20441;-77
2022/07/28 08:20:46;;;;;;;4.35;1.30;;;;;;;;;;5114009;27;20450;-77
2022/07/28 08:23:12;;;;;;;4.80;1.67;;;;;;;;;;5111451;27;20912;-78
2022/07/28 08:25:38;;;;;;;2.60;1.10;;;;;;;;;;5118821;27;20802;-77
2022/07/28 08:28:04;;;;;;;4.70;1.60;;;16.70;99.90;;;;;;5115936;27;20420;-77
2022/07/28 08:30:30;;;;;;;6.00;1.40;;;;;;;;;;5125369;27;20817;-77
2022/07/28 08:32:56;;;;;;;4.72;1.67;;;;;;;;;;5121776;27;20425;-75
2022/07/28 08:35:22;;;;;;;4.70;1.65;;;;;;;;;;5140785;27;20487;-77
2022/07/28 08:37:48;;;;;;;4.55;1.70;;;;;;;;;;5155258;27;20909;-77
2022/07/28 08:40:14;;;;;;;5.97;1.42;;;;;;;;;;5121548;27;20406;-77
2022/07/28 08:43:06;;;;;;;7.03;1.48;;;16.10;99.90;;;;;;5124097;27;20414;-76
2022/07/28 08:45:32;;;;;;;5.32;1.60;;;;;;;;;;5116917;27;20417;-76
2022/07/28 08:47:59;;;;;;;6.80;1.70;;;;;;;;;;5115258;27;20424;-77
2022/07/28 08:50:25;;;;;;;7.05;1.50;;;;;;;;;;5113642;27;20749;-76
2022/07/28 08:52:51;;;;;;;7.30;1.60;;;;;;;;;;5109736;27;20422;-77
2022/07/28 08:55:27;;;;;;;4.22;1.42;;;;;;;;;;5134404;27;20399;-76
2022/07/28 08:57:56;;;;;;;6.85;1.60;;;16.80;99.90;;;;;;5117663;27;20427;-76
2022/07/28 09:00:22;;;;;;;5.88;1.90;;;16.60;99.90;;;;;;5125103;27;20423;-77
2022/07/28 09:02:50;;;;;;;5.95;1.60;;;16.80;99.90;;;;;;5124798;27;20937;-76
2022/07/28 09:05:16;;;;;;;6.63;1.67;;;17.10;99.90;;;;;;5127103;27;20444;-77
2022/07/28 09:07:43;;;;;;;5.05;1.50;;;17.20;99.90;;;;;;5119357;27;20450;-76
2022/07/28 09:10:10;;;;;;;4.82;1.60;;;17.00;99.90;;;;;;5130502;27;20908;-76
2022/07/28 09:12:38;;;;;;;6.55;1.70;;;;;;;;;;5129751;27;20801;-77
2022/07/28 09:15:05;;;;;;;4.07;1.70;;;;;;;;;;5131048;27;20828;-77
2022/07/28 09:17:32;;;;;;;4.97;1.67;;;16.90;99.90;;;;;;5130913;27;20422;-77
2022/07/28 09:19:58;;;;;;;4.70;1.60;;;17.30;99.90;;;;;;5133943;27;20919;-77
2022/07/28 09:22:24;;;;;;;5.35;1.52;;;;;;;;;;5104183;27;20423;-77
2022/07/28 09:24:51;;;;;;;3.60;1.40;;;;;;;;;;5123159;27;20416;-77
2022/07/28 09:27:16;;;;;;;3.10;1.20;;;17.00;99.90;;;;;;5112682;27;20412;-77
2022/07/28 09:29:57;;;;;;;2.80;1.20;;;;;;;;;;5124842;27;20490;-76
2022/07/28 09:32:23;;;;;;;5.00;1.48;;;;;;;;;;5130899;27;20505;-76
2022/07/28 09:34:51;;;;;;;4.03;1.40;;;17.50;99.90;;;;;;5135067;27;21073;-77
2022/07/28 09:37:21;;;;;;;3.15;1.48;;;;;;;;;;5117898;27;20939;-76
2022/07/28 09:39:50;;;;;;;4.38;1.50;;;17.70;99.90;;;;;;5128161;27;20773;-77
2022/07/28 09:42:17;;;;;;;6.43;1.67;;;18.00;99.90;;;;;;5129659;27;20402;-76
2022/07/28 09:44:43;;;;;;;5.10;1.40;;;;;;;;;;5127725;27;20703;-76
2022/07/28 09:47:27;;;;;;;4.80;1.38;;;18.10;99.90;;;;;;5101649;27;20782;-76
2022/07/28 09:49:53;;;;;;;6.07;1.80;;;;;;;;;;5135465;27;20453;-76
2022/07/28 09:52:32;;;;;;;4.00;1.58;;;;;;;;;;5113779;27;20458;-75
2022/07/28 09:55:03;;;;;;;4.38;1.50;;;18.20;99.90;;;;;;5122894;27;20769;-75
2022/07/28 09:57:30;;;;;;;3.53;1.40;;;17.80;99.90;;;;;;5119145;27;20416;-76
2022/07/28 09:59:57;;;;;;;2.67;1.15;;;17.80;99.90;;;;;;5095664;28;20389;-76
2022/07/28 10:02:25;;;;;;;2.60;1.30;;;18.10;99.90;;;;;;5117971;27;20770;-76
2022/07/28 10:04:52;;;;;;;3.03;1.13;;;;;;;;;;5131201;27;20407;-77
2022/07/28 10:07:19;;;;;;;4.22;1.40;;;17.90;99.90;;;;;;5124208;27;20442;-76
2022/07/28 10:10:10;;;;;;;3.13;1.40;;;17.90;99.90;;;;;;5130111;27;20415;-76
2022/07/28 10:12:37;;;;;;;3.85;1.40;;;17.80;99.90;;;;;;5131521;27;21190;-76
2022/07/28 10:17:59;;;;;;;1.80;1.20;;;;;;;;;;5127916;27;20418;-77
2022/07/28 10:20:26;;;;;;;3.70;1.23;;;18.40;99.90;;;;;;5128414;27;20979;-78
2022/07/28 10:23:08;;;;;;;4.40;1.33;;;18.50;99.90;;;;;;5115707;27;20399;-76
2022/07/28 10:25:37;;;;;;;7.53;1.63;;;18.40;99.90;;;;;;5111229;27;20907;-76
2022/07/28 10:28:04;;;;;;;2.42;1.23;;;18.40;99.90;;;;;;5122934;27;20418;-76
2022/07/28 10:30:34;;;;;;;4.37;1.43;;;;;;;;;;5142966;27;20416;-76
2022/07/28 10:33:04;;;;;;;3.38;1.30;;;18.40;99.90;;;;;;5127152;27;20421;-75
2022/07/28 10:35:31;;;;;;;3.10;1.30;;;18.50;99.90;;;;;;5132757;27;20422;-76
2022/07/28 10:38:03;;;;;;;4.73;1.43;;;;;;;;;;5101452;28;20499;-75
2022/07/28 10:40:32;;;;;;;3.80;1.50;;;;;;;;;;5128465;27;20424;-75
2022/07/28 10:42:59;;;;;;;4.03;1.42;;;;;;;;;;5133745;27;20386;-76
2022/07/28 10:45:26;;;;;;;3.60;1.40;;;19.60;99.90;;;;;;5124183;27;20415;-75
2022/07/28 10:47:54;;;;;;;3.92;1.35;;;;;;;;;;5134050;27;20395;-75
2022/07/28 10:50:21;;;;;;;3.93;1.33;;;;;;;;;;5140039;27;20407;-77
2022/07/28 10:52:47;;;;;;;4.20;1.42;;;;;;;;;;5113313;27;20412;-76
2022/07/28 10:55:13;;;;;;;3.15;1.25;;;;;;;;;;5085811;27;20456;-75
2022/07/28 10:57:43;;;;;;;2.47;1.20;;;;;;;;;;5129947;27;20424;-76
2022/07/28 11:00:09;;;;;;;3.95;1.40;;;;;;;;;;5126552;27;20448;-76
2022/07/28 11:02:46;;;;;;;3.95;1.23;;;20.10;99.90;;;;;;5132558;27;20497;-76
2022/07/28 11:05:33;;;;;;;2.90;1.20;;;20.20;99.90;;;;;;5128836;27;20392;-76
2022/07/28 11:08:07;;;;;;;3.53;1.38;;;20.60;99.90;;;;;;5128049;27;20455;-75
2022/07/28 11:11:02;;;;;;;4.27;1.27;;;20.60;99.90;;;;;;5132521;27;20734;-76
2022/07/28 11:13:30;;;;;;;4.28;1.30;;;20.20;99.90;;;;;;5073515;28;20484;-76
2022/07/28 11:16:14;;;;;;;2.65;1.20;;;20.20;99.90;;;;;;5113759;27;20776;-76
2022/07/28 11:19:05;;;;;;;4.65;1.40;;;21.20;99.90;;;;;;5117970;27;20432;-76
2022/07/28 11:21:31;;;;;;;2.70;1.23;;;21.30;99.90;;;;;;5089537;28;20453;-76
2022/07/28 11:23:57;;;;;;;2.35;1.30;;;;;;;;;;5131497;27;20846;-75
2022/07/28 11:26:24;;;;;;;4.38;1.30;;;;;;;;;;5130883;27;20890;-76
2022/07/28 11:28:59;;;;;;;4.40;1.30;;;;;;;;;;5125211;27;20408;-77
2022/07/28 11:31:46;;;;;;;2.95;1.40;;;21.00;99.90;;;;;;5120925;27;20397;-75
2022/07/28 11:34:19;;;;;;;3.35;1.30;;;21.00;99.90;;;;;;5121692;27;20427;-76
2022/07/28 11:37:10;;;;;;;3.87;1.63;;;20.40;99.90;;;;;;5110719;27;20426;-75
2022/07/28 11:39:38;;;;;;;5.38;1.80;;;20.60;99.90;;;;;;5118842;27;20427;-76
2022/07/28 11:42:31;;;;;;;3.65;1.50;;;20.00;99.90;;;;;;5122826;27;20442;-76
2022/07/28 11:45:17;;;;;;;3.27;1.40;;;20.50;99.90;;;;;;5122182;27;20414;-76
2022/07/28 11:47:43;;;;;;;3.92;1.38;;;20.00;99.90;;;;;;5124783;27;21076;-76
2022/07/28 11:50:11;;;;;;;5.22;1.42;;;19.50;99.90;;;;;;5112334;27;20497;-76
2022/07/28 11:52:39;;;;;;;4.00;1.60;;;20.20;99.90;;;;;;5099151;28;20425;-76
2022/07/28 11:55:05;;;;;;;3.60;1.60;;;;;;;;;;5118795;27;20936;-75
2022/07/28 11:57:39;;;;;;;2.60;1.50;;;20.80;99.90;;;;;;5122384;27;20471;-76
2022/07/28 12:00:06;;;;;;;3.05;1.40;;;20.30;99.90;;;;;;5124368;27;20420;-76
2022/07/28 12:02:33;;;;;;;2.25;1.33;;;20.80;99.90;;;;;;5121731;28;20484;-76
2022/07/28 12:05:08;;;;;;;3.90;1.42;;;20.80;99.90;;;;;;5120341;28;20821;-76
2022/07/28 12:07:52;;;;;;;3.35;1.40;;;20.90;99.90;;;;;;5114700;27;20454;-76
2022/07/28 12:10:22;;;;;;;2.35;1.30;;;20.70;99.90;;;;;;5082280;28;20427;-76
2022/07/28 12:12:49;;;;;;;2.47;1.17;;;;;;;;;;5100821;28;20498;-75
2022/07/28 12:15:16;;;;;;;3.97;1.57;;;;;;;;;;5128662;28;20394;-76
2022/07/28 12:17:42;;;;;;;2.40;1.20;;;20.60;99.90;;;;;;5094935;27;20443;-75
2022/07/28 12:20:09;;;;;;;2.33;1.20;;;;;;;;;;5101627;28;20424;-75
2022/07/28 12:22:35;;;;;;;2.97;1.20;;;20.20;99.90;;;;;;5117675;27;20418;-75
2022/07/28 12:25:01;;;;;;;2.67;1.10;;;;;;;;;;5123128;28;20411;-75
2022/07/28 12:27:27;;;;;;;2.33;1.20;;;20.30;99.90;;;;;;5121831;27;20432;-75
2022/07/28 12:30:01;;;;;;;5.50;1.40;;;20.90;99.90;;;;;;5114861;27;20690;-76
2022/07/28 12:32:31;;;;;;;2.97;1.42;;;21.20;99.90;;;;;;5103875;28;20489;-75
2022/07/28 12:34:57;;;;;;;4.00;1.25;;;21.00;99.90;;;;;;5109441;28;20759;-75
2022/07/28 12:37:24;;;;;;;3.27;1.40;;;20.80;99.90;;;;;;5093362;28;20757;-76
2022/07/28 12:39:51;;;;;;;6.15;1.38;;;20.80;99.90;;;;;;5126448;27;20764;-75
2022/07/28 12:42:17;;;;;;;2.53;1.30;;;20.80;99.90;;;;;;5115397;27;20406;-75
2022/07/28 12:44:50;;;;;;;2.67;1.17;;;21.50;99.90;;;;;;5114447;27;20555;-75
2022/07/28 12:47:24;;;;;;;4.43;1.37;;;21.60;99.90;;;;;;5121571;27;20419;-75
2022/07/28 12:50:11;;;;;;;4.60;1.30;;;21.00;99.90;;;;;;5112465;27;20431;-75
2022/07/28 12:52:37;;;;;;;3.05;1.40;;;;;;;;;;5118426;27;20788;-74
2022/07/28 12:55:20;;;;;;;5.72;1.40;;;21.70;99.90;;;;;;5093451;28;20416;-75
2022/07/28 12:57:46;;;;;;;2.80;1.17;;;21.90;99.90;;;;;;5113570;27;20431;-75
2022/07/28 13:00:12;;;;;;;3.15;1.30;;;22.00;99.90;;;;;;5114780;27;20420;-75
2022/07/28 13:02:39;;;;;;;3.35;1.40;;;22.30;99.90;;;;;;5115584;27;20426;-75
2022/07/28 13:05:06;;;;;;;3.63;1.13;;;22.80;99.90;;;;;;5130273;27;20481;-75
2022/07/28 13:07:32;;;;;;;2.33;1.13;;;22.80;99.90;;;;;;5146364;27;20532;-75
2022/07/28 13:10:08;;;;;;;2.80;1.23;;;;;;;;;;5110471;27;20433;-76
2022/07/28 13:12:35;;;;;;;3.03;1.10;;;21.70;99.90;;;;;;5125243;27;20416;-76
2022/07/28 13:15:05;;;;;;;4.30;1.25;;;21.90;99.90;;;;;;5125993;27;20419;-75
2022/07/28 13:18:07;;;;;;;2.83;1.20;;;21.90;99.90;;;;;;5103271;27;20477;-75
2022/07/28 13:20:53;;;;;;;2.63;1.10;;;21.90;99.90;;;;;;5067482;28;20407;-75
2022/07/28 13:23:21;;;;;;;3.33;1.20;;;;;;;;;;5116837;27;20414;-75
2022/07/28 13:25:47;;;;;;;2.63;1.20;;;;;;;;;;5101277;27;20923;-75
2022/07/28 13:28:26;;;;;;;2.33;1.15;;;21.90;99.90;;;;;;5139853;27;20409;-74
2022/07/28 13:30:53;;;;;;;4.10;1.20;;;22.10;99.90;;;;;;5116277;27;20469;-74
2022/07/28 13:33:19;;;;;;;2.78;1.20;;;22.30;99.90;;;;;;5132593;27;20493;-75
2022/07/28 13:35:46;;;;;;;2.20;1.05;;;22.30;99.90;;;;;;5118966;27;20487;-75
2022/07/28 13:38:12;;;;;;;3.67;1.40;;;22.50;99.90;;;;;;5131716;27;20414;-74
2022/07/28 13:40:38;;;;;;;1.98;1.08;;;22.80;99.90;;;;;;5121044;27;20408;-75
2022/07/28 13:43:06;;;;;;;2.75;1.10;;;;;;;;;;5109331;27;20506;-74
2022/07/28 13:45:34;;;;;;;2.83;1.38;;;22.90;99.90;;;;;;5123227;27;20421;-74
2022/07/28 13:48:01;;;;;;;4.68;1.27;;;22.80;99.90;;;;;;5122439;27;20420;-74
2022/07/28 13:50:27;;;;;;;1.97;1.20;;;;;;;;;;5105652;27;20458;-74
2022/07/28 13:52:53;;;;;;;5.70;1.20;;;;;;;;;;5134738;27;20422;-74
2022/07/28 13:55:20;;;;;;;2.10;1.10;;;;;;;;;;5117733;27;20428;-75
2022/07/28 13:57:45;;;;;;;3.20;1.20;;;21.60;99.90;;;;;;5122187;27;20930;-75
2022/07/28 14:00:12;;;;;;;3.72;1.20;;;;;;;;;;5123212;27;20410;-73
2022/07/28 14:02:38;;;;;;;2.60;1.15;;;;;;;;;;5118793;27;20509;-74
2022/07/28 14:05:04;;;;;;;2.77;1.20;;;;;;;;;;5110078;27;20423;-74
2022/07/28 14:07:30;;;;;;;3.95;1.25;;;21.70;99.90;;;;;;5109934;27;20428;-75
2022/07/28 14:09:57;;;;;;;2.20;1.20;;;;;;;;;;5121163;27;20415;-75
2022/07/28 14:12:23;;;;;;;2.90;1.20;;;;;;;;;;5127051;27;20774;-74
2022/07/28 14:14:49;;;;;;;2.47;1.15;;;22.10;99.90;;;;;;5122088;27;20409;-74